sensor_id;sensor_type;location;lat;lon;timestamp;pressure;altitude;pressure_sealevel;temperature;humidity
48027;BME280;50714;49.208;5.364;2024-02-28T00:08:35;99706.66;;;4.64;100.00
48027;BME280;50714;49.208;5.364;2024-02-28T00:18:36;99709.44;;;4.55;100.00
48027;BME280;50714;49.208;5.364;2024-02-28T00:28:36;99711.25;;;4.46;100.00
48027;BME280;50714;49.208;5.364;2024-02-28T00:38:36;99727.06;;;4.39;100.00
48027;BME280;50714;49.208;5.364;2024-02-28T00:48:37;99731.25;;;4.16;100.00
48027;BME280;50714;49.208;5.364;2024-02-28T00:58:38;99759.56;;;4.09;100.00
48027;BME280;50714;49.208;5.364;2024-02-28T01:08:38;99750.50;;;4.02;100.00
48027;BME280;50714;49.208;5.364;2024-02-28T01:18:39;99751.06;;;3.88;100.00
48027;BME280;50714;49.208;5.364;2024-02-28T01:28:40;99766.78;;;3.91;100.00
48027;BME280;50714;49.208;5.364;2024-02-28T01:38:42;99769.38;;;3.83;100.00
48027;BME280;50714;49.208;5.364;2024-02-28T01:48:43;99750.94;;;3.54;100.00
48027;BME280;50714;49.208;5.364;2024-02-28T01:58:45;99774.97;;;3.71;100.00
48027;BME280;50714;49.208;5.364;2024-02-28T02:08:46;99781.97;;;3.72;100.00
48027;BME280;50714;49.208;5.364;2024-02-28T02:18:48;99786.69;;;3.61;100.00
48027;BME280;50714;49.208;5.364;2024-02-28T02:28:48;99779.59;;;3.52;100.00
48027;BME280;50714;49.208;5.364;2024-02-28T02:38:48;99776.09;;;3.51;100.00
48027;BME280;50714;49.208;5.364;2024-02-28T02:48:49;99785.00;;;3.42;100.00
48027;BME280;50714;49.208;5.364;2024-02-28T02:58:49;99776.69;;;3.45;100.00
48027;BME280;50714;49.208;5.364;2024-02-28T03:08:51;99796.59;;;3.51;100.00
48027;BME280;50714;49.208;5.364;2024-02-28T03:18:52;99800.13;;;3.51;100.00
48027;BME280;50714;49.208;5.364;2024-02-28T03:28:52;99801.59;;;3.36;100.00
48027;BME280;50714;49.208;5.364;2024-02-28T03:38:52;99800.25;;;3.04;100.00
48027;BME280;50714;49.208;5.364;2024-02-28T03:48:53;99805.09;;;3.09;100.00
48027;BME280;50714;49.208;5.364;2024-02-28T03:58:53;99822.75;;;3.20;100.00
48027;BME280;50714;49.208;5.364;2024-02-28T04:08:53;99821.47;;;3.24;100.00
48027;BME280;50714;49.208;5.364;2024-02-28T04:18:54;99821.78;;;3.21;100.00
48027;BME280;50714;49.208;5.364;2024-02-28T04:28:54;99836.63;;;3.23;100.00
48027;BME280;50714;49.208;5.364;2024-02-28T04:38:54;99828.94;;;3.20;100.00
48027;BME280;50714;49.208;5.364;2024-02-28T04:48:55;99846.88;;;3.28;100.00
48027;BME280;50714;49.208;5.364;2024-02-28T04:58:55;99874.41;;;3.19;100.00
48027;BME280;50714;49.208;5.364;2024-02-28T05:08:55;99873.78;;;3.07;100.00
48027;BME280;50714;49.208;5.364;2024-02-28T05:18:55;99894.94;;;3.08;100.00
48027;BME280;50714;49.208;5.364;2024-02-28T05:28:56;99907.88;;;3.03;100.00
48027;BME280;50714;49.208;5.364;2024-02-28T05:38:58;99909.56;;;3.04;100.00
48027;BME280;50714;49.208;5.364;2024-02-28T05:49:00;99922.06;;;2.85;100.00
48027;BME280;50714;49.208;5.364;2024-02-28T05:59:00;99935.41;;;2.85;100.00
48027;BME280;50714;49.208;5.364;2024-02-28T06:09:00;99938.81;;;2.77;100.00
48027;BME280;50714;49.208;5.364;2024-02-28T06:19:00;99944.28;;;2.76;100.00
48027;BME280;50714;49.208;5.364;2024-02-28T06:29:01;99962.19;;;2.93;100.00
48027;BME280;50714;49.208;5.364;2024-02-28T06:39:04;99968.66;;;3.00;100.00
48027;BME280;50714;49.208;5.364;2024-02-28T06:49:04;99988.81;;;3.22;100.00
48027;BME280;50714;49.208;5.364;2024-02-28T06:59:05;99993.34;;;3.02;100.00
48027;BME280;50714;49.208;5.364;2024-02-28T07:09:11;100008.06;;;2.87;100.00
48027;BME280;50714;49.208;5.364;2024-02-28T07:19:12;100019.41;;;3.08;100.00
48027;BME280;50714;49.208;5.364;2024-02-28T07:29:12;99999.47;;;3.22;100.00
48027;BME280;50714;49.208;5.364;2024-02-28T07:39:12;100018.94;;;3.41;100.00
48027;BME280;50714;49.208;5.364;2024-02-28T07:49:13;100012.94;;;3.67;100.00
48027;BME280;50714;49.208;5.364;2024-02-28T07:59:13;100008.94;;;3.81;100.00
48027;BME280;50714;49.208;5.364;2024-02-28T08:09:13;100017.84;;;3.71;100.00
48027;BME280;50714;49.208;5.364;2024-02-28T08:19:15;100010.44;;;3.56;100.00
48027;BME280;50714;49.208;5.364;2024-02-28T08:29:17;100012.28;;;3.55;100.00
48027;BME280;50714;49.208;5.364;2024-02-28T08:39:17;100026.59;;;3.64;100.00
48027;BME280;50714;49.208;5.364;2024-02-28T08:49:18;100029.78;;;3.77;100.00
48027;BME280;50714;49.208;5.364;2024-02-28T08:59:18;100041.91;;;3.62;100.00
48027;BME280;50714;49.208;5.364;2024-02-28T09:09:19;100067.28;;;3.75;100.00
48027;BME280;50714;49.208;5.364;2024-02-28T09:19:19;100065.25;;;3.97;100.00
48027;BME280;50714;49.208;5.364;2024-02-28T09:29:19;100095.81;;;4.12;100.00
48027;BME280;50714;49.208;5.364;2024-02-28T09:39:20;100099.44;;;4.21;100.00
48027;BME280;50714;49.208;5.364;2024-02-28T09:49:21;100101.63;;;4.25;100.00
48027;BME280;50714;49.208;5.364;2024-02-28T09:59:24;100112.84;;;4.38;100.00
48027;BME280;50714;49.208;5.364;2024-02-28T10:09:24;100107.97;;;4.52;100.00
48027;BME280;50714;49.208;5.364;2024-02-28T10:19:24;100123.44;;;4.75;100.00
48027;BME280;50714;49.208;5.364;2024-02-28T10:29:25;100118.34;;;5.00;100.00
48027;BME280;50714;49.208;5.364;2024-02-28T10:39:26;100116.75;;;5.07;100.00
48027;BME280;50714;49.208;5.364;2024-02-28T10:49:27;100122.69;;;5.01;100.00
48027;BME280;50714;49.208;5.364;2024-02-28T10:59:31;100130.38;;;5.13;100.00
48027;BME280;50714;49.208;5.364;2024-02-28T11:09:34;100126.41;;;5.18;100.00
48027;BME280;50714;49.208;5.364;2024-02-28T11:19:34;100123.78;;;5.26;100.00
48027;BME280;50714;49.208;5.364;2024-02-28T11:29:34;100129.50;;;5.31;100.00
48027;BME280;50714;49.208;5.364;2024-02-28T11:39:35;100126.81;;;5.48;100.00
48027;BME280;50714;49.208;5.364;2024-02-28T11:49:39;100122.06;;;5.60;100.00
48027;BME280;50714;49.208;5.364;2024-02-28T11:59:39;100102.78;;;5.82;100.00
48027;BME280;50714;49.208;5.364;2024-02-28T12:09:40;100103.03;;;5.89;100.00
48027;BME280;50714;49.208;5.364;2024-02-28T12:19:41;100090.03;;;5.76;100.00
48027;BME280;50714;49.208;5.364;2024-02-28T12:29:42;100086.13;;;5.89;100.00
48027;BME280;50714;49.208;5.364;2024-02-28T12:39:42;100084.38;;;6.05;100.00
48027;BME280;50714;49.208;5.364;2024-02-28T12:49:43;100079.59;;;5.91;100.00
48027;BME280;50714;49.208;5.364;2024-02-28T12:59:43;100072.16;;;6.11;100.00
48027;BME280;50714;49.208;5.364;2024-02-28T13:09:43;100056.91;;;6.62;100.00
48027;BME280;50714;49.208;5.364;2024-02-28T13:19:44;100041.19;;;6.75;100.00
48027;BME280;50714;49.208;5.364;2024-02-28T13:29:44;100021.53;;;6.66;100.00
48027;BME280;50714;49.208;5.364;2024-02-28T13:39:44;100007.66;;;6.71;100.00
48027;BME280;50714;49.208;5.364;2024-02-28T13:49:45;99997.25;;;6.76;100.00
48027;BME280;50714;49.208;5.364;2024-02-28T13:59:47;100001.94;;;6.74;100.00
48027;BME280;50714;49.208;5.364;2024-02-28T14:09:49;99999.97;;;7.00;100.00
48027;BME280;50714;49.208;5.364;2024-02-28T14:19:49;99995.25;;;7.10;100.00
48027;BME280;50714;49.208;5.364;2024-02-28T14:29:49;99993.72;;;7.24;100.00
48027;BME280;50714;49.208;5.364;2024-02-28T14:39:50;99996.22;;;7.42;100.00
48027;BME280;50714;49.208;5.364;2024-02-28T14:49:50;99983.91;;;7.64;100.00
48027;BME280;50714;49.208;5.364;2024-02-28T14:59:50;99981.53;;;7.69;100.00
48027;BME280;50714;49.208;5.364;2024-02-28T15:09:51;99972.91;;;7.81;100.00
48027;BME280;50714;49.208;5.364;2024-02-28T15:19:51;99962.31;;;7.88;100.00
48027;BME280;50714;49.208;5.364;2024-02-28T15:29:51;99966.16;;;7.94;99.13
48027;BME280;50714;49.208;5.364;2024-02-28T15:39:53;99960.78;;;7.94;99.05
48027;BME280;50714;49.208;5.364;2024-02-28T15:49:53;99974.91;;;7.87;99.38
48027;BME280;50714;49.208;5.364;2024-02-28T15:59:54;99978.03;;;7.68;100.00
48027;BME280;50714;49.208;5.364;2024-02-28T16:09:55;99964.16;;;7.48;100.00
48027;BME280;50714;49.208;5.364;2024-02-28T16:19:56;99959.28;;;7.36;100.00
48027;BME280;50714;49.208;5.364;2024-02-28T16:29:57;99970.75;;;7.30;100.00
48027;BME280;50714;49.208;5.364;2024-02-28T16:39:57;99955.66;;;7.29;100.00
48027;BME280;50714;49.208;5.364;2024-02-28T16:49:57;99950.28;;;7.21;100.00
48027;BME280;50714;49.208;5.364;2024-02-28T16:59:58;99970.25;;;7.10;100.00
48027;BME280;50714;49.208;5.364;2024-02-28T17:09:58;99958.53;;;7.03;100.00
48027;BME280;50714;49.208;5.364;2024-02-28T17:19:58;99964.06;;;6.93;100.00
48027;BME280;50714;49.208;5.364;2024-02-28T17:29:59;99955.38;;;6.83;100.00
48027;BME280;50714;49.208;5.364;2024-02-28T17:40:00;99943.59;;;6.68;100.00
48027;BME280;50714;49.208;5.364;2024-02-28T17:50:01;99940.09;;;6.51;100.00
48027;BME280;50714;49.208;5.364;2024-02-28T18:00:05;99958.84;;;6.35;100.00
48027;BME280;50714;49.208;5.364;2024-02-28T18:10:12;99960.78;;;6.16;100.00
48027;BME280;50714;49.208;5.364;2024-02-28T18:20:12;99947.88;;;6.04;100.00
48027;BME280;50714;49.208;5.364;2024-02-28T18:30:13;99944.47;;;5.94;100.00
48027;BME280;50714;49.208;5.364;2024-02-28T18:40:14;99955.53;;;5.91;100.00
48027;BME280;50714;49.208;5.364;2024-02-28T18:50:15;99956.00;;;5.86;100.00
48027;BME280;50714;49.208;5.364;2024-02-28T19:00:16;99952.97;;;5.81;100.00
48027;BME280;50714;49.208;5.364;2024-02-28T19:10:20;99932.84;;;5.77;100.00
48027;BME280;50714;49.208;5.364;2024-02-28T19:20:20;99944.03;;;5.64;100.00
48027;BME280;50714;49.208;5.364;2024-02-28T19:30:20;99945.75;;;5.47;100.00
48027;BME280;50714;49.208;5.364;2024-02-28T19:40:20;99944.59;;;5.42;100.00
48027;BME280;50714;49.208;5.364;2024-02-28T19:50:21;99939.97;;;5.26;100.00
48027;BME280;50714;49.208;5.364;2024-02-28T20:00:21;99946.44;;;5.16;100.00
48027;BME280;50714;49.208;5.364;2024-02-28T20:10:22;99940.19;;;5.07;100.00
48027;BME280;50714;49.208;5.364;2024-02-28T20:20:22;99949.00;;;4.99;100.00
48027;BME280;50714;49.208;5.364;2024-02-28T20:30:23;99936.56;;;4.90;100.00
48027;BME280;50714;49.208;5.364;2024-02-28T20:40:23;99921.06;;;4.76;100.00
48027;BME280;50714;49.208;5.364;2024-02-28T20:50:24;99916.41;;;4.78;100.00
48027;BME280;50714;49.208;5.364;2024-02-28T21:00:25;99904.19;;;4.75;100.00
48027;BME280;50714;49.208;5.364;2024-02-28T21:10:26;99897.84;;;4.76;100.00
48027;BME280;50714;49.208;5.364;2024-02-28T21:20:26;99886.13;;;4.69;100.00
48027;BME280;50714;49.208;5.364;2024-02-28T21:30:28;99884.16;;;4.54;100.00
48027;BME280;50714;49.208;5.364;2024-02-28T21:40:28;99876.25;;;4.44;100.00
48027;BME280;50714;49.208;5.364;2024-02-28T21:50:29;99874.59;;;4.51;100.00
48027;BME280;50714;49.208;5.364;2024-02-28T22:00:29;99865.75;;;4.51;100.00
48027;BME280;50714;49.208;5.364;2024-02-28T22:10:29;99862.41;;;4.49;100.00
48027;BME280;50714;49.208;5.364;2024-02-28T22:20:30;99853.03;;;4.44;100.00
48027;BME280;50714;49.208;5.364;2024-02-28T22:30:30;99850.84;;;4.22;100.00
48027;BME280;50714;49.208;5.364;2024-02-28T22:40:30;99847.66;;;4.01;100.00
48027;BME280;50714;49.208;5.364;2024-02-28T22:50:32;99824.13;;;3.87;100.00
48027;BME280;50714;49.208;5.364;2024-02-28T23:00:32;99798.13;;;3.71;100.00
48027;BME280;50714;49.208;5.364;2024-02-28T23:10:32;99792.50;;;3.74;100.00
48027;BME280;50714;49.208;5.364;2024-02-28T23:20:33;99792.94;;;3.87;100.00
48027;BME280;50714;49.208;5.364;2024-02-28T23:30:34;99780.13;;;3.91;100.00
48027;BME280;50714;49.208;5.364;2024-02-28T23:40:34;99774.41;;;3.86;100.00
48027;BME280;50714;49.208;5.364;2024-02-28T23:50:35;99789.44;;;3.87;100.00
